createdAt,value
2022-08-09T05:37:46.409Z,99.90
2022-08-09T05:40:17.094Z,99.90
2022-08-09T05:42:47.420Z,99.90
2022-08-09T05:45:17.182Z,99.90
2022-08-09T05:47:52.121Z,99.90
2022-08-09T05:50:36.151Z,99.90
2022-08-09T05:53:31.743Z,99.90
2022-08-09T05:56:01.792Z,99.90
2022-08-09T05:58:30.668Z,99.90
2022-08-09T06:01:00.504Z,99.90
2022-08-09T06:03:34.861Z,99.90
2022-08-09T06:06:14.086Z,99.90
2022-08-09T06:08:44.460Z,99.90
2022-08-09T06:11:21.921Z,99.90
2022-08-09T06:14:09.703Z,99.90
2022-08-09T06:16:42.185Z,99.90
2022-08-09T06:19:21.111Z,99.90
2022-08-09T06:21:58.517Z,99.90
2022-08-09T06:24:29.564Z,99.90
2022-08-09T06:26:58.540Z,99.90
2022-08-09T06:29:27.405Z,99.90
2022-08-09T06:32:08.387Z,99.90
2022-08-09T06:34:38.365Z,99.90
2022-08-09T06:37:08.102Z,99.90
2022-08-09T06:39:57.890Z,99.90
2022-08-09T06:42:30.855Z,99.90
2022-08-09T06:46:05.257Z,99.90
2022-08-09T06:48:00.655Z,99.90
2022-08-09T06:50:31.140Z,98.40
2022-08-09T06:53:02.902Z,98.00
2022-08-09T06:55:34.288Z,97.20
2022-08-09T06:58:04.755Z,95.40
2022-08-09T07:00:51.082Z,94.80
2022-08-09T07:03:28.591Z,94.10
2022-08-09T07:06:04.866Z,93.10
2022-08-09T07:08:37.435Z,92.20
2022-08-09T07:11:12.349Z,93.30
2022-08-09T07:14:04.562Z,91.80
2022-08-09T07:16:40.641Z,91.50
2022-08-09T07:19:15.577Z,91.60
2022-08-09T07:21:55.592Z,90.10
2022-08-09T07:24:32.773Z,87.00
2022-08-09T07:27:27.200Z,84.60
2022-08-09T07:30:02.679Z,85.60
2022-08-09T07:32:33.035Z,84.30
2022-08-09T07:35:07.939Z,83.40
2022-08-09T07:37:44.031Z,86.60
2022-08-09T07:40:18.288Z,86.10
2022-08-09T07:42:54.905Z,81.60
2022-08-09T07:45:40.281Z,81.60
2022-08-09T07:48:25.717Z,81.70
2022-08-09T07:51:10.156Z,80.20
2022-08-09T07:54:07.432Z,78.90
2022-08-09T07:59:34.197Z,73.30
2022-08-09T08:02:09.945Z,74.80
2022-08-09T08:04:40.086Z,72.00
2022-08-09T08:07:15.140Z,71.40
2022-08-09T08:10:07.921Z,73.90
2022-08-09T08:12:43.147Z,72.00
2022-08-09T08:15:17.797Z,72.40
2022-08-09T08:17:54.635Z,72.10
2022-08-09T08:20:28.990Z,69.50
2022-08-09T08:23:03.388Z,68.20
2022-08-09T08:25:44.650Z,67.70
2022-08-09T08:30:56.442Z,67.20
2022-08-09T08:33:26.592Z,64.70
2022-08-09T08:36:29.175Z,63.90
2022-08-09T08:41:42.232Z,60.60
2022-08-09T08:44:22.969Z,60.20
2022-08-09T08:46:59.759Z,60.50
2022-08-09T08:49:47.108Z,60.80
2022-08-09T08:55:08.788Z,58.90
2022-08-09T08:57:38.131Z,58.00
2022-08-09T09:00:17.062Z,57.60
2022-08-09T09:02:55.736Z,56.40
2022-08-09T09:05:54.281Z,53.80
2022-08-09T09:08:30.732Z,54.90
2022-08-09T09:11:04.275Z,53.20
2022-08-09T09:13:54.881Z,51.50
2022-08-09T09:16:30.557Z,53.70
2022-08-09T09:24:37.947Z,49.20
2022-08-09T09:27:21.780Z,47.20
2022-08-09T09:30:14.203Z,44.20
2022-08-09T09:33:15.307Z,44.80
2022-08-09T09:36:02.001Z,43.30
2022-08-09T09:38:44.443Z,44.00
2022-08-09T09:41:14.149Z,42.40
2022-08-09T09:44:10.975Z,43.30
2022-08-09T09:46:42.996Z,44.90
2022-08-09T09:49:32.026Z,41.60
2022-08-09T09:52:33.552Z,42.00
2022-08-09T09:55:16.184Z,42.20
2022-08-09T09:58:01.261Z,40.90
2022-08-09T10:00:34.404Z,41.10
2022-08-09T10:03:09.129Z,42.40
2022-08-09T10:06:04.158Z,41.50
2022-08-09T10:08:54.190Z,41.70
2022-08-09T10:11:59.220Z,42.90
2022-08-09T10:14:30.427Z,40.10
2022-08-09T10:17:39.792Z,42.00
2022-08-09T10:20:00.298Z,41.20
2022-08-09T10:22:36.489Z,40.50
2022-08-09T10:25:12.306Z,39.10
2022-08-09T10:27:56.169Z,40.80
2022-08-09T10:34:04.649Z,40.70
2022-08-09T10:36:11.460Z,38.70
2022-08-09T10:38:56.051Z,40.10
2022-08-09T10:41:30.059Z,38.50
2022-08-09T10:44:01.752Z,39.40
2022-08-09T10:46:55.715Z,39.50
2022-08-09T10:49:49.890Z,39.50
2022-08-09T10:52:36.682Z,38.90
2022-08-09T10:55:22.724Z,37.80
2022-08-09T10:57:55.870Z,39.10
2022-08-09T11:00:56.878Z,39.90
2022-08-09T11:03:49.861Z,40.40
2022-08-09T11:06:24.781Z,39.00
2022-08-09T11:08:54.190Z,38.70
2022-08-09T11:11:24.659Z,39.60
2022-08-09T11:14:35.391Z,39.10
2022-08-09T11:18:02.598Z,40.50
2022-08-09T11:20:49.807Z,38.60
2022-08-09T11:23:23.806Z,40.00
2022-08-09T11:25:54.876Z,38.70
2022-08-09T11:28:56.136Z,39.60
2022-08-09T11:31:49.880Z,39.90
2022-08-09T11:34:43.187Z,40.70
2022-08-09T11:37:25.379Z,40.60
2022-08-09T11:40:04.941Z,39.50
2022-08-09T11:42:43.484Z,39.40
2022-08-09T11:45:26.325Z,40.60
2022-08-09T11:48:26.703Z,39.50
2022-08-09T11:52:48.989Z,40.80
2022-08-09T11:54:21.488Z,40.20
2022-08-09T11:57:47.777Z,39.80
2022-08-09T12:00:27.301Z,40.80
2022-08-09T12:02:58.179Z,41.60
2022-08-09T12:05:39.844Z,40.40
2022-08-09T12:08:21.387Z,39.00
2022-08-09T12:10:53.759Z,38.20
2022-08-09T12:14:07.571Z,38.30
2022-08-09T12:16:37.657Z,38.60
2022-08-09T12:19:09.571Z,38.40
2022-08-09T12:21:48.605Z,37.50
2022-08-09T12:24:24.094Z,37.10
2022-08-09T12:29:11.081Z,38.00
2022-08-09T12:30:04.001Z,38.70
2022-08-09T12:32:45.287Z,38.20
2022-08-09T12:35:21.540Z,39.60
2022-08-09T12:37:53.943Z,39.30
2022-08-09T15:24:31.378Z,37.40
2022-08-09T15:27:00.374Z,38.00
2022-08-09T15:30:59.793Z,38.60
2022-08-09T15:32:28.582Z,38.00
2022-08-09T15:35:01.238Z,38.90
2022-08-09T15:37:57.281Z,37.60
2022-08-09T15:40:31.962Z,38.60
2022-08-09T15:43:04.204Z,37.30
2022-08-09T15:46:07.941Z,37.70
2022-08-09T15:48:28.894Z,37.10
2022-08-09T15:50:58.547Z,38.30
2022-08-09T15:54:03.570Z,38.20
2022-08-09T15:56:30.737Z,38.00
2022-08-09T15:59:00.398Z,37.20
2022-08-09T16:01:35.274Z,37.20
2022-08-09T16:04:06.435Z,37.70
2022-08-09T16:06:44.687Z,38.10
2022-08-09T16:09:19.525Z,37.70
2022-08-09T16:12:11.267Z,38.90
2022-08-09T16:14:40.524Z,37.80
2022-08-09T16:17:09.485Z,39.00
2022-08-09T16:19:49.321Z,38.40
2022-08-09T16:22:29.140Z,38.40
2022-08-09T16:24:59.506Z,38.60
2022-08-09T16:27:30.368Z,38.10
2022-08-09T16:30:02.397Z,38.40
2022-08-09T16:33:07.268Z,38.50
2022-08-09T16:35:57.441Z,37.90
2022-08-09T16:38:29.638Z,39.50
2022-08-09T16:41:08.029Z,39.10
2022-08-09T16:43:44.718Z,38.50
2022-08-09T16:46:14.840Z,38.80
2022-08-09T16:48:55.652Z,38.40
2022-08-09T16:51:29.643Z,39.40
2022-08-09T16:56:49.411Z,38.90
2022-08-09T16:59:19.018Z,38.80
2022-08-09T17:01:51.429Z,39.50
2022-08-09T17:04:25.847Z,39.70
2022-08-09T17:08:41.483Z,40.60
2022-08-09T17:09:48.722Z,40.70
2022-08-09T17:12:19.764Z,40.20
2022-08-09T17:14:50.691Z,40.60
2022-08-09T17:17:27.813Z,40.60
2022-08-09T17:20:32.324Z,41.30
2022-08-09T17:22:49.829Z,40.70
2022-08-09T17:25:19.499Z,40.70
2022-08-09T17:27:48.841Z,41.00
2022-08-09T17:30:19.807Z,40.60
2022-08-09T17:32:49.474Z,40.50
2022-08-09T17:35:18.262Z,41.10
2022-08-09T17:38:11.305Z,41.10
2022-08-09T17:40:38.714Z,40.70
2022-08-09T17:43:33.165Z,41.50
2022-08-09T17:46:03.388Z,41.60
2022-08-09T17:48:39.449Z,41.40
2022-08-09T17:51:18.755Z,41.60
2022-08-09T17:53:54.629Z,41.00
2022-08-09T17:56:28.444Z,41.30
2022-08-09T17:59:01.231Z,42.70
2022-08-09T18:02:03.253Z,41.30
2022-08-09T18:04:21.921Z,42.50
2022-08-09T18:06:54.924Z,41.80
2022-08-09T18:09:40.332Z,42.80
2022-08-09T18:12:15.277Z,42.50
2022-08-09T18:14:50.008Z,41.80
2022-08-09T18:17:27.325Z,42.30
2022-08-09T18:20:56.142Z,43.10
2022-08-09T18:23:05.371Z,43.10
2022-08-09T18:25:52.719Z,42.40
2022-08-09T18:30:42.517Z,42.60
2022-08-09T18:31:13.489Z,42.30
2022-08-09T18:33:48.862Z,43.30
2022-08-09T18:36:25.670Z,44.30
2022-08-09T18:39:02.640Z,44.70
2022-08-09T18:41:35.334Z,44.70
2022-08-09T18:44:12.534Z,45.10
2022-08-09T18:46:49.088Z,44.60
2022-08-09T18:49:23.630Z,46.50
2022-08-09T18:51:55.025Z,47.10
2022-08-09T18:54:29.012Z,47.40
2022-08-09T18:57:05.899Z,47.50
2022-08-09T18:59:48.672Z,48.10
2022-08-09T19:02:19.172Z,47.00
2022-08-09T19:05:03.860Z,48.30
2022-08-09T19:07:37.429Z,48.60
2022-08-09T19:10:16.673Z,49.10
2022-08-09T19:12:56.509Z,49.40
2022-08-09T19:15:38.528Z,49.30
2022-08-09T19:18:07.708Z,49.20
2022-08-09T19:20:46.390Z,49.90
2022-08-09T19:24:39.789Z,50.40
2022-08-09T19:26:15.549Z,50.30
2022-08-09T19:28:48.941Z,50.70
2022-08-09T19:31:17.946Z,50.90
2022-08-09T19:33:46.780Z,51.10
2022-08-09T19:36:15.620Z,51.90
2022-08-09T19:38:45.940Z,52.30
2022-08-09T19:41:32.702Z,52.40
2022-08-09T19:44:06.185Z,52.20
2022-08-09T19:50:06.884Z,52.80
2022-08-09T19:52:12.137Z,53.90
2022-08-09T19:54:41.529Z,53.20
2022-08-09T19:57:10.383Z,53.10
2022-08-09T20:00:05.526Z,53.60
2022-08-09T20:04:10.799Z,53.60
2022-08-09T20:05:18.478Z,54.60
2022-08-09T20:07:58.742Z,55.80
2022-08-09T20:10:34.561Z,56.10
2022-08-09T20:13:08.327Z,57.00
2022-08-09T20:16:33.878Z,58.00
2022-08-09T20:18:28.465Z,58.60
2022-08-09T20:20:57.825Z,59.70
2022-08-09T20:23:39.388Z,60.20
2022-08-09T20:26:13.013Z,60.80
2022-08-09T20:28:48.059Z,61.40
2022-08-09T20:31:19.341Z,62.20
2022-08-09T20:33:52.522Z,62.00
2022-08-09T20:36:31.068Z,62.90
2022-08-09T20:39:28.034Z,63.20
2022-08-09T20:41:49.568Z,64.60
2022-08-09T20:44:26.855Z,64.40
2022-08-09T20:46:59.219Z,65.60
2022-08-09T20:49:28.726Z,66.30
2022-08-09T20:51:57.884Z,66.60
